Time;durP1;ratioP1;P1;durP2;ratioP2;P2;SDS_P1;SDS_P2;PMS_P1;PMS_P2;Temp;Humidity;BMP_temperature;BMP_pressure;BME280_temperature;BME280_humidity;BME280_pressure;Samples;Min_cycle;Max_cycle;Signal;HPM_P1;HPM_P2
2022/01/04 00:09:53;;;;;;;5.53;2.20;;;11.30;99.70;;;;;;20924529;28;20602;-72
2022/01/04 00:19:55;;;;;;;2.77;1.77;;;11.20;99.90;;;;;;20923763;28;20230;-70
2022/01/04 00:29:56;;;;;;;3.23;1.70;;;11.20;99.90;;;;;;20921650;28;20217;-71
2022/01/04 00:39:59;;;;;;;4.90;2.10;;;11.20;99.90;;;;;;20921505;28;20254;-76
2022/01/04 00:50:00;;;;;;;2.17;1.80;;;11.20;99.90;;;;;;20921301;28;20678;-75
2022/01/04 01:00:04;;;;;;;3.87;2.13;;;11.20;99.90;;;;;;20920473;28;20237;-75
2022/01/04 01:20:14;;;;;;;2.27;1.83;;;11.20;99.90;;;;;;20919914;28;20597;-71
2022/01/04 01:30:16;;;;;;;4.73;1.90;;;11.20;99.90;;;;;;20925156;28;20626;-74
2022/01/04 01:40:17;;;;;;;4.07;2.03;;;11.20;99.90;;;;;;20916195;28;20247;-73
2022/01/04 01:50:20;;;;;;;4.33;1.97;;;11.10;99.90;;;;;;20917891;28;20646;-73
2022/01/04 02:00:24;;;;;;;5.00;2.20;;;11.20;99.90;;;;;;20916407;28;20234;-71
2022/01/04 02:10:26;;;;;;;4.30;2.87;;;11.10;99.90;;;;;;20915793;28;20565;-71
2022/01/04 02:20:29;;;;;;;5.20;2.80;;;11.00;99.90;;;;;;20915223;28;20233;-72
2022/01/04 02:30:31;;;;;;;4.57;2.90;;;11.10;99.90;;;;;;20913688;28;20214;-71
2022/01/04 02:40:33;;;;;;;4.87;3.03;;;11.00;99.90;;;;;;20895844;28;20241;-72
2022/01/04 02:50:35;;;;;;;6.60;3.60;;;11.00;99.90;;;;;;20914319;28;20206;-71
2022/01/04 03:00:37;;;;;;;5.03;3.50;;;11.00;99.90;;;;;;20926559;28;20244;-73
2022/01/04 03:10:39;;;;;;;1.97;1.60;;;11.10;99.90;;;;;;20937146;28;20305;-70
2022/01/04 03:20:40;;;;;;;1.50;1.40;;;11.30;99.90;;;;;;20928373;28;20231;-71
2022/01/04 03:30:42;;;;;;;1.63;1.37;;;11.30;99.90;;;;;;20927785;28;20658;-72
2022/01/04 03:40:47;;;;;;;2.40;1.50;;;11.50;99.90;;;;;;20925891;28;20303;-69
2022/01/04 03:50:49;;;;;;;2.17;1.30;;;11.50;99.90;;;;;;20928565;28;20624;-72
2022/01/04 04:00:51;;;;;;;3.10;2.20;;;11.60;99.90;;;;;;20925582;28;20276;-71
2022/01/04 04:10:53;;;;;;;2.23;1.60;;;11.70;99.90;;;;;;20924005;28;20719;-71
2022/01/04 04:20:55;;;;;;;1.20;1.07;;;11.70;99.90;;;;;;20923703;28;20239;-70
2022/01/04 04:30:56;;;;;;;1.10;1.00;;;11.70;99.90;;;;;;20928422;28;20213;-74
2022/01/04 04:40:58;;;;;;;1.10;1.00;;;11.80;99.90;;;;;;20921868;28;20274;-74
2022/01/04 04:51:00;;;;;;;0.90;0.90;;;11.80;99.90;;;;;;20921406;28;20265;-73
2022/01/04 05:01:01;;;;;;;2.00;1.50;;;11.80;99.90;;;;;;20919321;28;20228;-72
2022/01/04 05:11:03;;;;;;;1.07;0.97;;;11.80;99.90;;;;;;20918742;28;20214;-72
2022/01/04 05:21:05;;;;;;;4.80;1.50;;;11.80;99.90;;;;;;20918103;28;20304;-71
2022/01/04 05:31:07;;;;;;;3.23;1.30;;;11.70;99.90;;;;;;20918289;28;20218;-72
2022/01/04 05:41:09;;;;;;;1.63;1.20;;;11.80;99.90;;;;;;20916289;28;20302;-71
2022/01/04 05:51:11;;;;;;;1.13;1.00;;;11.80;99.90;;;;;;20915544;28;20236;-76
2022/01/04 06:01:14;;;;;;;0.93;0.90;;;11.80;99.90;;;;;;20915973;28;20227;-73
2022/01/04 06:11:32;;;;;;;1.10;1.00;;;11.70;99.90;;;;;;20915380;28;20576;-71
2022/01/04 06:21:33;;;;;;;1.10;1.00;;;11.80;99.90;;;;;;20913632;28;20232;-71
2022/01/04 06:31:35;;;;;;;1.30;1.03;;;11.70;99.90;;;;;;20919112;28;20205;-71
2022/01/04 06:41:37;;;;;;;0.83;0.83;;;11.80;99.90;;;;;;20933545;28;20257;-75
2022/01/04 06:51:39;;;;;;;1.80;1.30;;;11.80;99.90;;;;;;20930841;28;20239;-72
2022/01/04 07:01:41;;;;;;;1.30;1.20;;;11.90;99.90;;;;;;20910937;28;20273;-71
2022/01/04 07:11:43;;;;;;;1.47;1.00;;;11.90;99.90;;;;;;20927493;28;20291;-69
2022/01/04 07:21:45;;;;;;;1.73;1.13;;;11.90;99.90;;;;;;20928068;28;20236;-74
2022/01/04 07:31:47;;;;;;;1.17;1.07;;;11.90;99.90;;;;;;20925347;28;20212;-74
2022/01/04 07:41:48;;;;;;;1.50;1.10;;;11.90;99.90;;;;;;20923703;28;20248;-74
2022/01/04 07:51:50;;;;;;;1.10;1.00;;;11.90;99.90;;;;;;20907828;28;20204;-76
2022/01/04 08:01:52;;;;;;;2.10;1.20;;;12.00;99.90;;;;;;20924457;28;20226;-71
2022/01/04 08:11:54;;;;;;;3.63;1.40;;;12.10;99.90;;;;;;20923809;28;20207;-74
2022/01/04 08:21:55;;;;;;;1.40;1.30;;;12.10;99.90;;;;;;20922522;28;20240;-72
2022/01/04 08:31:58;;;;;;;2.03;1.00;;;12.10;99.90;;;;;;20922404;28;20662;-71
2022/01/04 08:42:02;;;;;;;1.77;1.33;;;12.20;99.90;;;;;;20919731;28;20289;-70
2022/01/04 08:52:05;;;;;;;1.73;1.10;;;12.20;99.90;;;;;;20920486;28;20212;-70
2022/01/04 09:02:07;;;;;;;2.90;1.10;;;12.20;99.90;;;;;;20919903;28;20752;-70
2022/01/04 09:12:11;;;;;;;1.00;0.90;;;12.20;99.90;;;;;;20918983;28;20204;-71
2022/01/04 09:22:13;;;;;;;1.87;0.97;;;12.30;99.90;;;;;;20899026;28;20224;-70
2022/01/04 09:32:16;;;;;;;1.00;0.90;;;12.30;99.90;;;;;;20917716;28;20346;-70
2022/01/04 09:42:20;;;;;;;1.93;1.10;;;12.40;99.90;;;;;;20915977;28;20243;-71
2022/01/04 09:52:22;;;;;;;2.43;0.97;;;12.50;99.90;;;;;;20916165;28;20648;-71
2022/01/04 10:02:30;;;;;;;1.27;1.00;;;12.60;99.90;;;;;;20914510;28;20257;-71
2022/01/04 10:12:55;;;;;;;1.80;1.10;;;12.60;99.90;;;;;;20914891;28;20283;-69
2022/01/04 10:23:11;;;;;;;1.40;1.17;;;12.70;99.90;;;;;;20914808;28;20234;-69
2022/01/04 10:33:19;;;;;;;2.13;1.20;;;12.70;99.90;;;;;;20913690;28;20256;-69
2022/01/04 10:43:23;;;;;;;1.10;1.00;;;12.70;99.90;;;;;;20749521;28;20623;-65
2022/01/04 10:53:34;;;;;;;1.53;1.00;;;12.60;99.90;;;;;;20749328;28;20205;-63
2022/01/04 11:03:41;;;;;;;1.53;1.30;;;12.60;99.90;;;;;;20746743;28;20250;-67
2022/01/04 11:13:43;;;;;;;2.30;1.00;;;12.70;99.90;;;;;;20750826;28;20200;-64
2022/01/04 11:23:46;;;;;;;2.33;1.10;;;12.60;99.90;;;;;;20759634;28;20233;-67
2022/01/04 11:34:06;;;;;;;2.80;1.20;;;12.40;99.90;;;;;;20775799;28;20230;-67
2022/01/04 11:44:19;;;;;;;2.43;1.57;;;11.50;99.90;;;;;;20926965;28;20263;-65
2022/01/04 11:54:31;;;;;;;1.90;1.40;;;10.30;99.90;;;;;;20925890;28;20228;-65
2022/01/04 12:04:49;;;;;;;1.83;1.10;;;10.10;99.90;;;;;;20924552;28;20303;-69
2022/01/04 12:14:50;;;;;;;2.20;1.30;;;10.00;99.90;;;;;;20923353;28;20262;-65
2022/01/04 12:25:02;;;;;;;2.13;1.20;;;10.00;99.90;;;;;;20922469;28;20230;-64
2022/01/04 12:35:07;;;;;;;2.57;0.87;;;9.90;99.90;;;;;;20920361;28;20236;-69
2022/01/04 12:45:12;;;;;;;3.80;1.00;;;9.90;99.90;;;;;;20921745;28;20297;-66
2022/01/04 12:55:14;;;;;;;2.20;1.13;;;9.80;99.90;;;;;;20922444;28;20224;-69
2022/01/04 13:05:18;;;;;;;2.73;1.03;;;9.50;99.90;;;;;;20920174;28;20227;-66
2022/01/04 13:15:20;;;;;;;3.97;0.90;;;9.40;99.90;;;;;;20918231;28;20211;-65
2022/01/04 13:25:22;;;;;;;2.50;1.00;;;9.40;99.90;;;;;;20918432;28;20326;-67
2022/01/04 13:35:31;;;;;;;0.83;0.80;;;9.30;99.90;;;;;;20916757;28;20278;-67
2022/01/04 13:46:01;;;;;;;1.20;0.93;;;9.20;99.90;;;;;;20918919;28;20683;-63
2022/01/04 13:56:25;;;;;;;6.23;4.20;;;9.00;99.90;;;;;;20913537;28;20258;-65
2022/01/04 14:06:38;;;;;;;0.70;0.70;;;9.00;99.90;;;;;;20916621;28;20231;-63
2022/01/04 14:16:52;;;;;;;2.50;2.00;;;8.80;99.60;;;;;;20916664;28;20685;-61
2022/01/04 14:26:54;;;;;;;0.70;0.70;;;8.80;99.80;;;;;;20914343;28;20229;-62
2022/01/04 14:36:55;;;;;;;1.13;0.80;;;8.70;99.90;;;;;;20914963;28;20233;-64
2022/01/04 14:46:57;;;;;;;2.43;1.30;;;8.80;99.90;;;;;;20914656;28;20231;-63
2022/01/04 14:56:59;;;;;;;0.93;0.63;;;8.70;99.70;;;;;;20907548;28;20202;-66
2022/01/04 15:07:01;;;;;;;0.60;0.60;;;8.60;99.50;;;;;;20934198;28;20281;-64
2022/01/04 15:17:04;;;;;;;1.20;1.07;;;8.70;99.70;;;;;;20928904;28;20211;-65
2022/01/04 15:27:06;;;;;;;3.17;2.00;;;8.70;99.90;;;;;;20926317;28;20312;-66
2022/01/04 15:37:07;;;;;;;1.10;1.00;;;8.70;99.90;;;;;;20925965;28;20234;-67
2022/01/04 15:47:11;;;;;;;1.67;1.30;;;8.70;99.30;;;;;;20925769;28;20228;-65
2022/01/04 15:57:14;;;;;;;9.43;6.63;;;8.80;99.70;;;;;;20926016;28;20603;-64
2022/01/04 16:07:16;;;;;;;1.90;1.50;;;8.70;99.30;;;;;;20924216;28;20305;-65
2022/01/04 16:27:32;;;;;;;3.77;2.30;;;8.50;99.40;;;;;;20925620;28;20253;-65
2022/01/04 16:37:56;;;;;;;1.60;1.40;;;8.50;99.40;;;;;;20926114;28;20234;-65
2022/01/04 16:47:58;;;;;;;1.87;1.43;;;8.50;99.00;;;;;;20922383;28;20282;-63
2022/01/04 16:58:05;;;;;;;1.93;1.60;;;8.50;99.10;;;;;;20904531;28;20200;-66
2022/01/04 17:08:06;;;;;;;2.63;1.50;;;8.50;99.30;;;;;;20919034;28;20227;-69
2022/01/04 17:18:09;;;;;;;2.17;1.70;;;8.60;99.00;;;;;;20919693;28;20278;-66
2022/01/04 17:28:15;;;;;;;2.10;1.40;;;8.60;98.90;;;;;;20918982;28;20230;-64
2022/01/04 17:38:19;;;;;;;2.07;1.73;;;8.60;99.20;;;;;;20917595;28;20232;-68
2022/01/04 17:48:22;;;;;;;3.03;1.90;;;8.60;98.90;;;;;;20917105;28;20239;-67
2022/01/04 17:58:24;;;;;;;2.57;1.93;;;8.60;98.90;;;;;;20916597;28;20211;-67
2022/01/04 18:08:26;;;;;;;2.17;1.93;;;8.70;99.10;;;;;;20914549;28;20230;-67
2022/01/04 18:18:29;;;;;;;4.67;2.90;;;8.80;99.30;;;;;;20914098;28;20211;-67
2022/01/04 18:28:31;;;;;;;2.50;2.10;;;8.80;99.20;;;;;;20914772;28;20241;-66
2022/01/04 18:38:32;;;;;;;2.60;2.00;;;8.70;99.00;;;;;;20913553;28;20281;-64
2022/01/04 18:48:34;;;;;;;2.23;2.00;;;8.70;98.60;;;;;;20912943;28;20278;-65
2022/01/04 18:58:36;;;;;;;3.27;2.10;;;8.70;98.50;;;;;;20912874;28;20253;-64
2022/01/04 19:08:38;;;;;;;3.57;2.30;;;8.80;99.40;;;;;;20912619;28;20301;-70
2022/01/04 19:18:40;;;;;;;3.13;2.50;;;8.80;99.10;;;;;;20913177;28;20676;-65
2022/01/04 19:28:42;;;;;;;2.07;1.70;;;8.70;99.20;;;;;;20911623;28;20235;-67
2022/01/04 19:38:55;;;;;;;1.70;1.50;;;8.70;98.60;;;;;;20897015;28;20228;-66
2022/01/04 19:48:57;;;;;;;1.70;1.60;;;8.60;98.30;;;;;;20937351;28;20219;-66
2022/01/04 19:59:00;;;;;;;1.77;1.60;;;8.50;98.20;;;;;;20928280;28;20211;-65
2022/01/04 20:09:02;;;;;;;2.13;1.80;;;8.50;98.50;;;;;;20925204;28;20235;-65
2022/01/04 20:19:04;;;;;;;2.00;1.60;;;8.40;98.10;;;;;;20924590;28;20208;-63
2022/01/04 20:29:06;;;;;;;1.97;1.60;;;8.30;98.00;;;;;;20922401;28;20236;-65
2022/01/04 20:39:10;;;;;;;1.87;1.50;;;8.30;98.10;;;;;;20922060;28;20250;-65
2022/01/04 20:49:15;;;;;;;5.53;2.70;;;8.30;97.90;;;;;;20922011;28;20225;-63
2022/01/04 20:59:17;;;;;;;1.90;1.40;;;8.30;97.70;;;;;;20921436;28;20214;-66
2022/01/04 21:09:19;;;;;;;1.53;1.33;;;8.20;97.70;;;;;;20919674;28;20287;-64
2022/01/04 21:19:21;;;;;;;1.47;1.27;;;8.30;98.10;;;;;;20930553;28;20657;-64
2022/01/04 21:29:23;;;;;;;2.40;1.33;;;8.30;97.70;;;;;;20904316;28;20233;-63
2022/01/04 21:39:25;;;;;;;1.10;1.00;;;8.10;97.50;;;;;;20899356;28;20324;-64
2022/01/04 21:49:28;;;;;;;1.30;1.10;;;8.10;97.80;;;;;;20918504;28;20316;-65
2022/01/04 21:59:30;;;;;;;1.20;0.90;;;8.10;97.50;;;;;;20916494;28;20661;-64
2022/01/04 22:09:35;;;;;;;1.20;1.10;;;8.10;97.50;;;;;;20915537;28;20230;-64
2022/01/04 22:19:48;;;;;;;3.33;1.10;;;8.10;97.40;;;;;;20915564;28;20242;-64
2022/01/04 22:29:51;;;;;;;1.93;1.30;;;8.10;97.60;;;;;;20915263;28;20225;-64
2022/01/04 22:39:52;;;;;;;2.03;1.63;;;8.20;97.90;;;;;;20896348;28;20230;-64
2022/01/04 22:49:54;;;;;;;1.50;1.40;;;8.20;97.80;;;;;;20914539;28;20643;-64
2022/01/04 22:59:56;;;;;;;1.40;1.30;;;8.10;97.80;;;;;;20912913;28;20228;-66
2022/01/04 23:09:58;;;;;;;1.87;1.63;;;8.20;98.20;;;;;;20913915;28;20231;-64
2022/01/04 23:19:59;;;;;;;2.27;1.70;;;8.00;98.20;;;;;;20926863;28;20218;-64
2022/01/04 23:30:02;;;;;;;1.23;1.13;;;8.10;98.30;;;;;;20928169;28;20235;-64
2022/01/04 23:40:04;;;;;;;2.10;1.70;;;8.10;98.70;;;;;;20926725;28;20234;-65
2022/01/04 23:50:07;;;;;;;2.80;1.50;;;8.10;98.70;;;;;;20926800;28;20233;-64
